Time;durP1;ratioP1;P1;durP2;ratioP2;P2;SDS_P1;SDS_P2;PMS_P1;PMS_P2;Temp;Humidity;BMP_temperature;BMP_pressure;BME280_temperature;BME280_humidity;BME280_pressure;Samples;Min_cycle;Max_cycle;Signal;HPM_P1;HPM_P2
2022/02/08 00:00:17;;;;;;;22.38;20.77;;;2.70;84.70;;;;;;5075419;28;20643;-72
2022/02/08 00:02:49;;;;;;;23.00;20.90;;;2.60;83.40;;;;;;5076100;28;20553;-72
2022/02/08 00:05:17;;;;;;;22.65;21.00;;;2.70;82.90;;;;;;5075685;28;20262;-72
2022/02/08 00:07:48;;;;;;;23.98;22.13;;;2.50;82.80;;;;;;5075567;28;20577;-72
2022/02/08 00:10:15;;;;;;;22.23;20.70;;;2.50;83.00;;;;;;5075176;28;20276;-72
2022/02/08 00:12:42;;;;;;;22.48;20.50;;;2.50;82.90;;;;;;5075347;28;20653;-72
2022/02/08 00:15:10;;;;;;;22.02;20.27;;;2.70;82.50;;;;;;5075392;28;20200;-72
2022/02/08 00:17:38;;;;;;;22.17;20.60;;;2.70;82.00;;;;;;5075022;28;20200;-72
2022/02/08 00:20:08;;;;;;;20.85;19.55;;;2.70;82.40;;;;;;5075040;28;20287;-72
2022/02/08 00:22:35;;;;;;;21.98;20.20;;;2.80;82.40;;;;;;5075084;28;20199;-72
2022/02/08 00:25:03;;;;;;;21.25;19.75;;;2.90;82.10;;;;;;5075348;28;20646;-72
2022/02/08 00:27:29;;;;;;;22.50;21.20;;;3.00;81.40;;;;;;5075158;28;20234;-72
2022/02/08 00:29:57;;;;;;;21.85;20.48;;;3.00;81.30;;;;;;5074854;28;20297;-72
2022/02/08 00:32:24;;;;;;;21.60;20.00;;;3.10;81.20;;;;;;5075346;28;20203;-72
2022/02/08 00:34:53;;;;;;;21.23;19.80;;;3.10;83.50;;;;;;5074983;28;20199;-72
2022/02/08 00:37:20;;;;;;;21.85;20.13;;;3.20;82.00;;;;;;5074958;28;20229;-72
2022/02/08 00:39:47;;;;;;;22.00;20.50;;;3.40;80.90;;;;;;5074579;28;20196;-72
2022/02/08 00:42:14;;;;;;;21.40;20.20;;;3.40;80.40;;;;;;5074978;28;20199;-72
2022/02/08 00:44:46;;;;;;;21.88;20.45;;;3.40;80.30;;;;;;5073765;28;20253;-72
2022/02/08 00:47:20;;;;;;;20.80;19.40;;;3.40;80.20;;;;;;5074770;28;20223;-72
2022/02/08 00:49:47;;;;;;;21.25;19.55;;;3.40;80.50;;;;;;5074458;28;20203;-72
2022/02/08 00:52:16;;;;;;;21.70;20.15;;;3.30;82.30;;;;;;5074762;28;20657;-72
2022/02/08 00:54:44;;;;;;;21.30;19.80;;;3.30;83.10;;;;;;5074808;28;20274;-72
2022/02/08 00:57:11;;;;;;;20.30;19.10;;;3.30;81.90;;;;;;5074680;28;20211;-72
2022/02/08 00:59:39;;;;;;;21.80;20.50;;;3.40;81.00;;;;;;5074600;28;20207;-72
2022/02/08 01:02:06;;;;;;;21.65;19.98;;;3.50;79.70;;;;;;5074507;28;20723;-72
2022/02/08 01:04:34;;;;;;;21.42;20.00;;;3.40;80.00;;;;;;5074499;28;20296;-72
2022/02/08 01:07:01;;;;;;;20.80;19.60;;;3.40;83.90;;;;;;5074480;28;20254;-72
2022/02/08 01:09:40;;;;;;;22.45;20.63;;;3.50;81.60;;;;;;5074268;28;20546;-72
2022/02/08 01:12:08;;;;;;;21.95;20.40;;;3.50;80.60;;;;;;5074357;28;20211;-72
2022/02/08 01:14:39;;;;;;;22.70;20.85;;;3.40;80.20;;;;;;5074199;28;20214;-72
2022/02/08 01:17:06;;;;;;;21.42;20.00;;;3.50;80.20;;;;;;5073911;28;20565;-72
2022/02/08 01:19:35;;;;;;;21.77;20.40;;;3.50;79.90;;;;;;5074105;28;20192;-72
2022/02/08 01:22:02;;;;;;;21.60;20.10;;;3.40;79.80;;;;;;5074008;28;20220;-72
2022/02/08 01:24:30;;;;;;;21.13;19.65;;;3.50;79.90;;;;;;5074117;28;20674;-72
2022/02/08 01:27:02;;;;;;;22.63;20.75;;;3.40;80.10;;;;;;5073965;28;20226;-72
2022/02/08 01:29:39;;;;;;;21.58;20.05;;;3.40;81.80;;;;;;5073922;28;20195;-72
2022/02/08 01:32:19;;;;;;;21.42;19.85;;;3.40;80.60;;;;;;5073936;28;20226;-72
2022/02/08 01:34:59;;;;;;;22.15;20.45;;;3.40;80.40;;;;;;5073770;28;20211;-72
2022/02/08 01:37:39;;;;;;;21.38;20.13;;;3.40;80.30;;;;;;5073960;28;20671;-72
2022/02/08 01:40:18;;;;;;;21.35;20.05;;;3.40;81.20;;;;;;5073591;28;20704;-72
2022/02/08 01:42:58;;;;;;;20.70;19.30;;;3.40;81.70;;;;;;5073873;28;20199;-72
2022/02/08 01:45:42;;;;;;;21.35;19.42;;;3.40;81.70;;;;;;5073801;28;20253;-72
2022/02/08 01:48:12;;;;;;;21.60;19.98;;;3.40;81.50;;;;;;5073445;28;20223;-72
2022/02/08 01:50:40;;;;;;;20.88;19.40;;;3.50;80.50;;;;;;5073873;28;20223;-72
2022/02/08 01:53:08;;;;;;;21.88;20.23;;;3.40;80.10;;;;;;5073712;28;20231;-72
2022/02/08 01:55:37;;;;;;;21.48;20.00;;;3.40;80.30;;;;;;5073142;28;20198;-72
2022/02/08 01:58:04;;;;;;;21.13;19.83;;;3.50;80.40;;;;;;5073468;28;20222;-72
2022/02/08 02:00:31;;;;;;;21.75;20.10;;;3.50;80.20;;;;;;5073171;28;20258;-72
2022/02/08 02:02:58;;;;;;;21.35;19.98;;;3.50;80.30;;;;;;5073416;28;20569;-72
2022/02/08 02:05:25;;;;;;;21.67;20.35;;;3.50;79.80;;;;;;5073330;28;20211;-72
2022/02/08 02:07:52;;;;;;;20.88;19.67;;;3.40;79.70;;;;;;5073119;28;20307;-72
2022/02/08 02:10:21;;;;;;;22.00;20.30;;;3.50;79.70;;;;;;5072959;28;20246;-72
2022/02/08 02:12:58;;;;;;;20.58;19.48;;;3.50;79.70;;;;;;5072977;28;20273;-72
2022/02/08 02:15:26;;;;;;;20.50;19.20;;;3.50;79.80;;;;;;5073065;28;20200;-72
2022/02/08 02:17:53;;;;;;;21.75;20.45;;;3.50;79.90;;;;;;5072813;28;20206;-72
2022/02/08 02:20:20;;;;;;;21.23;19.83;;;3.40;79.80;;;;;;5072729;28;20242;-71
2022/02/08 02:22:47;;;;;;;21.83;20.45;;;3.50;79.60;;;;;;5072778;28;20202;-72
2022/02/08 02:25:23;;;;;;;21.77;20.10;;;3.50;79.10;;;;;;5072949;28;20676;-72
2022/02/08 02:27:52;;;;;;;21.77;20.13;;;3.70;78.40;;;;;;5072823;28;20219;-72
2022/02/08 02:30:19;;;;;;;22.23;20.70;;;3.60;78.80;;;;;;5072671;28;20730;-72
2022/02/08 02:32:46;;;;;;;21.92;20.38;;;3.60;78.60;;;;;;5072882;28;20202;-72
2022/02/08 02:35:13;;;;;;;21.25;19.85;;;3.60;78.90;;;;;;5072755;28;20201;-72
2022/02/08 02:37:40;;;;;;;22.88;20.23;;;3.60;78.70;;;;;;5072817;28;20202;-72
2022/02/08 02:40:08;;;;;;;21.55;20.25;;;3.50;78.40;;;;;;5072403;28;20226;-72
2022/02/08 02:42:37;;;;;;;22.10;20.58;;;3.50;78.40;;;;;;5072644;28;20680;-72
2022/02/08 02:45:06;;;;;;;21.27;19.77;;;3.60;78.20;;;;;;5072661;28;20573;-72
2022/02/08 02:47:33;;;;;;;20.75;19.45;;;3.60;78.30;;;;;;5072494;28;20223;-72
2022/02/08 02:50:00;;;;;;;21.27;20.00;;;3.60;78.20;;;;;;5072398;28;20192;-72
2022/02/08 02:52:27;;;;;;;21.85;20.17;;;3.70;77.60;;;;;;5072624;28;20198;-72
2022/02/08 02:54:54;;;;;;;20.73;19.60;;;3.70;77.40;;;;;;5072444;28;20195;-72
2022/02/08 02:57:22;;;;;;;21.35;20.05;;;3.70;77.50;;;;;;5072514;28;20235;-72
2022/02/08 03:00:00;;;;;;;21.83;20.40;;;3.70;77.60;;;;;;5072177;28;20672;-72
2022/02/08 03:02:38;;;;;;;21.38;20.15;;;3.70;77.60;;;;;;5072463;28;20561;-72
2022/02/08 03:05:14;;;;;;;22.27;20.67;;;3.70;77.70;;;;;;5072387;28;20207;-72
2022/02/08 03:18:41;;;;;;;22.00;20.60;;;3.80;77.00;;;;;;5072450;28;20190;-72
2022/02/08 03:21:10;;;;;;;21.80;20.50;;;3.80;77.20;;;;;;5071829;28;20308;-72
2022/02/08 03:23:37;;;;;;;22.90;21.60;;;3.80;77.00;;;;;;5072226;28;20196;-72
2022/02/08 03:26:05;;;;;;;22.65;21.00;;;3.80;77.10;;;;;;5072172;28;20251;-72
2022/02/08 03:28:32;;;;;;;21.73;20.23;;;3.90;76.60;;;;;;5072165;28;20225;-72
2022/02/08 03:31:01;;;;;;;22.67;20.80;;;4.10;76.10;;;;;;5071914;28;20685;-72
2022/02/08 03:33:28;;;;;;;22.70;21.30;;;4.10;75.90;;;;;;5072060;28;20206;-72
2022/02/08 03:35:56;;;;;;;21.50;19.90;;;4.10;76.10;;;;;;5071873;28;20561;-72
2022/02/08 03:38:29;;;;;;;23.83;21.77;;;4.30;75.30;;;;;;5072277;28;20222;-72
2022/02/08 03:40:56;;;;;;;21.40;20.30;;;4.30;75.00;;;;;;5071698;28;20585;-72
2022/02/08 03:43:29;;;;;;;22.60;21.08;;;4.40;74.70;;;;;;5072015;28;20231;-72
2022/02/08 03:45:59;;;;;;;22.52;20.88;;;4.40;74.60;;;;;;5072107;28;20227;-72
2022/02/08 03:48:30;;;;;;;23.42;21.48;;;4.30;74.70;;;;;;5071882;28;20310;-72
2022/02/08 03:51:06;;;;;;;21.77;20.40;;;4.40;74.90;;;;;;5071712;28;20581;-72
2022/02/08 03:53:33;;;;;;;23.13;21.48;;;4.30;75.00;;;;;;5071936;28;20283;-72
2022/02/08 03:56:00;;;;;;;23.60;21.73;;;4.20;75.00;;;;;;5072018;28;20202;-72
2022/02/08 03:58:27;;;;;;;22.00;20.67;;;4.30;75.10;;;;;;5071787;28;20290;-72
2022/02/08 04:01:12;;;;;;;23.70;21.73;;;4.20;74.80;;;;;;5071664;28;20270;-72
2022/02/08 04:03:51;;;;;;;21.23;20.05;;;4.30;74.90;;;;;;5071842;28;20192;-72
2022/02/08 04:06:18;;;;;;;23.00;21.08;;;4.40;74.90;;;;;;5072088;28;20653;-72
2022/02/08 04:08:45;;;;;;;21.77;20.35;;;4.40;74.70;;;;;;5071782;28;20653;-72
2022/02/08 04:11:13;;;;;;;23.20;21.90;;;4.40;74.50;;;;;;5071419;28;20800;-72
2022/02/08 04:13:47;;;;;;;23.90;22.05;;;4.40;74.90;;;;;;5071724;28;20207;-72
2022/02/08 04:16:25;;;;;;;23.50;21.70;;;4.30;74.80;;;;;;5071564;28;20195;-72
2022/02/08 04:19:09;;;;;;;25.98;24.25;;;4.30;74.70;;;;;;5074452;28;20201;-72
2022/02/08 04:33:02;;;;;;;23.17;21.70;;;4.40;74.60;;;;;;5070215;28;20346;-72
2022/02/08 04:38:32;;;;;;;23.95;21.88;;;4.40;74.30;;;;;;5071224;28;20242;-72
2022/02/08 04:41:04;;;;;;;24.17;22.67;;;4.30;74.60;;;;;;5074765;28;20223;-71
2022/02/08 04:43:41;;;;;;;22.45;20.90;;;4.30;74.70;;;;;;5074881;28;20200;-71
2022/02/08 04:46:19;;;;;;;24.42;22.75;;;4.30;75.00;;;;;;5074842;28;20740;-71
2022/02/08 04:48:52;;;;;;;22.77;21.48;;;4.30;74.90;;;;;;5074715;28;20227;-72
2022/02/08 04:51:26;;;;;;;24.45;22.75;;;4.40;74.40;;;;;;5074451;28;20220;-71
2022/02/08 04:54:08;;;;;;;21.85;20.63;;;4.40;74.40;;;;;;5074717;28;20203;-72
2022/02/08 04:56:49;;;;;;;24.05;22.75;;;4.40;74.30;;;;;;5074731;28;20231;-71
2022/02/08 04:59:29;;;;;;;23.13;21.75;;;4.40;74.50;;;;;;5074378;28;20188;-71
2022/02/08 05:02:16;;;;;;;24.60;23.08;;;4.40;74.70;;;;;;5074468;28;20310;-71
2022/02/08 05:35:29;;;;;;;25.60;23.38;;;4.60;74.50;;;;;;5031538;28;20728;-71
2022/02/08 05:43:39;;;;;;;22.85;21.33;;;4.70;73.70;;;;;;5073729;28;20623;-72
2022/02/08 05:46:45;;;;;;;24.95;22.85;;;4.70;73.60;;;;;;5073422;28;20200;-71
2022/02/08 05:49:06;;;;;;;23.75;21.42;;;4.70;73.80;;;;;;5073402;28;20302;-72
2022/02/08 05:51:59;;;;;;;23.95;21.92;;;4.70;74.10;;;;;;5073478;28;20223;-71
2022/02/08 05:54:26;;;;;;;23.13;21.52;;;4.70;74.10;;;;;;5073527;28;20207;-71
2022/02/08 05:56:55;;;;;;;23.45;21.55;;;4.80;73.80;;;;;;5073490;28;20195;-71
2022/02/08 05:59:22;;;;;;;24.55;23.00;;;4.70;74.00;;;;;;5073214;28;20235;-71
2022/02/08 06:01:50;;;;;;;22.38;20.88;;;4.80;73.70;;;;;;5073304;28;20622;-71
2022/02/08 06:04:16;;;;;;;23.00;21.50;;;4.70;74.00;;;;;;5073181;28;20304;-72
2022/02/08 06:06:44;;;;;;;23.55;21.85;;;4.70;74.10;;;;;;5073278;28;20198;-72
2022/02/08 06:09:11;;;;;;;23.67;22.17;;;4.70;74.70;;;;;;5073053;28;20223;-71
2022/02/08 06:11:39;;;;;;;23.73;22.13;;;4.70;74.60;;;;;;5072934;28;20223;-72
2022/02/08 06:14:08;;;;;;;24.17;22.58;;;4.70;74.40;;;;;;5073004;28;20257;-72
2022/02/08 06:16:36;;;;;;;25.63;23.67;;;4.70;74.40;;;;;;5072983;28;20196;-72
2022/02/08 06:19:04;;;;;;;24.73;23.20;;;4.70;74.60;;;;;;5072931;28;20215;-72
2022/02/08 06:21:31;;;;;;;24.48;22.63;;;4.80;74.30;;;;;;5072702;28;20270;-71
2022/02/08 06:23:58;;;;;;;27.10;25.35;;;4.80;74.00;;;;;;5072885;28;20208;-71
2022/02/08 06:26:25;;;;;;;24.10;22.30;;;4.80;74.10;;;;;;5072823;28;20319;-72
2022/02/08 06:29:03;;;;;;;24.77;22.58;;;4.80;74.50;;;;;;5072703;28;20572;-72
2022/02/08 06:31:31;;;;;;;23.85;22.20;;;4.90;74.20;;;;;;5072555;28;20219;-71
2022/02/08 06:33:58;;;;;;;26.05;24.13;;;4.80;74.30;;;;;;5072710;28;20699;-71
2022/02/08 06:36:25;;;;;;;24.10;22.60;;;4.80;74.50;;;;;;5072681;28;20286;-71
2022/02/08 06:38:52;;;;;;;23.60;21.80;;;4.80;74.20;;;;;;5072659;28;20192;-72
2022/02/08 06:41:18;;;;;;;24.42;23.00;;;4.80;74.60;;;;;;5071626;28;20299;-72
2022/02/08 06:43:46;;;;;;;23.45;21.83;;;4.80;74.70;;;;;;5072615;28;20295;-72
2022/02/08 06:46:13;;;;;;;22.90;21.17;;;4.90;74.40;;;;;;5072460;28;20196;-71
2022/02/08 06:48:41;;;;;;;22.15;20.40;;;4.90;74.20;;;;;;5072603;28;20226;-72
2022/02/08 06:51:08;;;;;;;25.63;23.83;;;5.00;73.70;;;;;;5072323;28;20212;-72
2022/02/08 06:53:35;;;;;;;22.42;20.65;;;5.00;73.60;;;;;;5072511;28;20196;-72
2022/02/08 06:56:03;;;;;;;22.98;21.33;;;5.00;73.60;;;;;;5072482;28;20732;-72
2022/02/08 06:58:42;;;;;;;22.70;21.00;;;5.00;73.30;;;;;;5072431;28;20596;-71
2022/02/08 07:01:09;;;;;;;23.63;21.73;;;5.00;73.40;;;;;;5072209;28;20227;-71
2022/02/08 07:03:36;;;;;;;23.33;21.77;;;5.00;73.40;;;;;;5072391;28;20261;-72
2022/02/08 07:06:06;;;;;;;23.55;21.80;;;5.00;73.10;;;;;;5072509;28;20556;-72
2022/02/08 07:08:33;;;;;;;22.90;21.38;;;5.10;73.40;;;;;;5072503;28;20224;-71
2022/02/08 07:11:00;;;;;;;22.70;21.10;;;5.10;73.10;;;;;;5072039;28;20251;-71
2022/02/08 07:13:28;;;;;;;22.45;20.55;;;5.30;72.70;;;;;;5072172;28;20383;-72
2022/02/08 07:15:55;;;;;;;24.48;22.48;;;5.30;73.00;;;;;;5072263;28;20212;-72
2022/02/08 07:18:22;;;;;;;22.90;21.30;;;5.30;72.80;;;;;;5072019;28;20314;-71
2022/02/08 07:20:48;;;;;;;21.95;20.65;;;5.40;72.70;;;;;;5072197;28;20301;-71
2022/02/08 07:23:17;;;;;;;22.42;21.00;;;5.50;72.30;;;;;;5072180;28;20204;-72
2022/02/08 07:25:43;;;;;;;22.05;20.48;;;5.50;72.00;;;;;;5072240;28;20200;-72
2022/02/08 07:28:10;;;;;;;21.02;19.63;;;5.50;72.00;;;;;;5072044;28;20284;-72
2022/02/08 07:30:38;;;;;;;21.25;19.95;;;5.60;72.00;;;;;;5071921;28;20219;-72
2022/02/08 07:33:05;;;;;;;23.20;21.58;;;5.60;72.80;;;;;;5072185;28;20562;-72
2022/02/08 07:35:44;;;;;;;21.77;20.33;;;5.70;72.40;;;;;;5072140;28;20206;-72
2022/02/08 07:38:19;;;;;;;23.00;21.48;;;5.80;71.50;;;;;;5071998;28;20674;-72
2022/02/08 07:43:32;;;;;;;23.88;22.10;;;6.00;71.10;;;;;;5072093;28;20199;-72
2022/02/08 07:45:59;;;;;;;22.73;21.52;;;6.10;70.70;;;;;;5071880;28;20222;-72
2022/02/08 07:48:27;;;;;;;23.13;21.42;;;6.20;70.90;;;;;;5071790;28;20224;-72
2022/02/08 07:50:54;;;;;;;25.00;23.27;;;6.20;70.80;;;;;;5071698;28;20220;-72
2022/02/08 07:53:26;;;;;;;23.75;22.35;;;6.30;70.10;;;;;;5074011;28;20195;-72
2022/02/08 07:55:55;;;;;;;21.00;19.60;;;6.40;70.30;;;;;;5075829;28;20200;-72
2022/02/08 07:58:22;;;;;;;23.55;21.63;;;6.30;70.00;;;;;;5075762;28;20204;-72
2022/02/08 08:00:49;;;;;;;21.60;20.10;;;6.40;70.00;;;;;;5075539;28;20660;-72
2022/02/08 08:03:16;;;;;;;22.17;20.88;;;6.50;69.70;;;;;;5075634;28;20387;-72
2022/02/08 08:05:43;;;;;;;26.75;24.05;;;6.50;70.70;;;;;;5075553;28;20242;-71
2022/02/08 08:08:11;;;;;;;23.23;21.60;;;6.50;69.70;;;;;;5075456;28;20662;-72
2022/02/08 08:10:43;;;;;;;22.48;21.00;;;6.60;69.40;;;;;;5075195;28;20220;-72
2022/02/08 08:13:14;;;;;;;23.42;21.40;;;6.70;69.60;;;;;;5075360;28;20293;-72
2022/02/08 08:15:46;;;;;;;22.58;21.02;;;6.70;69.40;;;;;;5075387;28;20265;-72
2022/02/08 08:18:24;;;;;;;23.08;21.58;;;6.70;69.60;;;;;;5075068;28;20220;-72
2022/02/08 08:20:51;;;;;;;23.35;21.50;;;6.80;69.50;;;;;;5075146;28;20231;-72
2022/02/08 08:23:18;;;;;;;26.35;23.80;;;6.90;69.50;;;;;;5075104;28;20204;-72
2022/02/08 08:25:46;;;;;;;23.83;22.23;;;7.00;69.20;;;;;;5075197;28;20254;-72
2022/02/08 08:28:14;;;;;;;22.15;20.60;;;7.10;68.80;;;;;;5075068;28;20197;-72
2022/02/08 08:30:41;;;;;;;23.77;22.08;;;7.10;68.90;;;;;;5074846;28;20224;-72
2022/02/08 08:33:09;;;;;;;23.83;21.73;;;7.10;68.70;;;;;;5074993;28;20289;-72
2022/02/08 08:35:37;;;;;;;22.85;20.55;;;7.20;68.60;;;;;;5075092;28;20653;-72
2022/02/08 08:38:06;;;;;;;22.52;21.02;;;7.20;68.80;;;;;;5075061;28;20292;-72
2022/02/08 08:40:47;;;;;;;22.25;20.75;;;7.30;68.70;;;;;;5074772;28;20270;-72
2022/02/08 08:51:46;;;;;;;24.50;22.58;;;7.20;67.90;;;;;;5015904;28;20253;-72
2022/02/08 08:54:14;;;;;;;25.48;23.58;;;7.20;67.90;;;;;;5056897;28;20287;-72
2022/02/08 08:56:43;;;;;;;23.70;21.75;;;7.20;67.90;;;;;;5074628;28;20203;-72
2022/02/08 08:59:13;;;;;;;24.92;23.33;;;7.10;67.80;;;;;;5074323;28;20540;-72
2022/02/08 09:01:40;;;;;;;23.83;21.52;;;7.10;68.00;;;;;;5074504;28;20217;-72
2022/02/08 09:04:08;;;;;;;22.60;21.02;;;7.00;67.80;;;;;;5073501;28;20273;-72
2022/02/08 09:06:36;;;;;;;22.42;20.70;;;7.10;68.10;;;;;;5074449;28;20687;-72
2022/02/08 09:09:05;;;;;;;23.00;21.38;;;7.00;68.30;;;;;;5074391;28;20216;-72
2022/02/08 09:11:47;;;;;;;22.30;21.00;;;7.20;68.10;;;;;;5074293;28;20311;-72
2022/02/08 09:14:16;;;;;;;24.15;22.20;;;7.20;67.40;;;;;;5074354;28;20292;-72
2022/02/08 09:16:49;;;;;;;24.67;22.80;;;7.30;67.30;;;;;;5074158;28;20266;-72
2022/02/08 09:19:48;;;;;;;24.15;22.25;;;7.40;67.30;;;;;;5074052;28;20644;-72
2022/02/08 09:22:38;;;;;;;22.63;20.88;;;7.40;67.20;;;;;;5074022;28;20658;-72
2022/02/08 09:27:56;;;;;;;24.88;23.15;;;7.40;68.20;;;;;;5071962;28;20184;-72
2022/02/08 09:30:34;;;;;;;24.08;22.65;;;7.40;67.80;;;;;;5073805;28;20307;-72
2022/02/08 09:33:01;;;;;;;25.98;24.02;;;7.60;67.70;;;;;;5073957;28;20197;-72
2022/02/08 09:35:28;;;;;;;25.60;23.08;;;7.60;67.70;;;;;;5073847;28;20200;-72
2022/02/08 09:37:55;;;;;;;24.60;22.40;;;7.70;67.50;;;;;;5073903;28;20196;-72
2022/02/08 09:40:24;;;;;;;24.83;23.23;;;7.80;67.20;;;;;;5073701;28;20325;-71
2022/02/08 09:42:53;;;;;;;26.23;24.15;;;7.80;66.50;;;;;;5073721;28;20192;-72
2022/02/08 09:45:21;;;;;;;22.67;21.27;;;7.80;66.70;;;;;;5073594;28;20254;-72
2022/02/08 09:47:55;;;;;;;24.58;22.85;;;7.80;66.60;;;;;;5073598;28;20196;-72
2022/02/08 09:50:26;;;;;;;25.02;23.55;;;7.80;66.70;;;;;;5073420;28;20224;-72
2022/02/08 09:52:56;;;;;;;23.65;21.50;;;7.90;66.50;;;;;;5073756;28;20618;-72
2022/02/08 09:55:23;;;;;;;23.48;21.75;;;7.90;66.60;;;;;;5073689;28;20204;-72
2022/02/08 09:57:51;;;;;;;23.90;22.00;;;8.10;66.60;;;;;;5073557;28;20579;-72
2022/02/08 10:00:20;;;;;;;25.60;23.90;;;8.30;66.20;;;;;;5073207;28;20242;-72
2022/02/08 10:02:47;;;;;;;24.17;22.60;;;8.40;65.70;;;;;;5073361;28;20672;-72
2022/02/08 10:05:15;;;;;;;23.67;21.98;;;8.50;65.80;;;;;;5073177;28;20300;-71
2022/02/08 10:07:42;;;;;;;21.75;20.45;;;8.60;65.50;;;;;;5073288;28;20196;-72
2022/02/08 10:10:11;;;;;;;23.55;22.05;;;8.70;65.30;;;;;;5072774;28;20225;-72
2022/02/08 10:23:53;;;;;;;23.77;21.60;;;9.10;64.20;;;;;;5073154;28;20199;-72
2022/02/08 10:26:26;;;;;;;26.02;24.23;;;9.20;64.00;;;;;;5072895;28;20200;-72
2022/02/08 10:28:56;;;;;;;26.05;23.98;;;9.30;63.60;;;;;;5072991;28;20201;-72
2022/02/08 10:31:45;;;;;;;25.48;23.67;;;9.40;63.30;;;;;;5072546;28;20216;-72
2022/02/08 10:40:06;;;;;;;24.90;23.38;;;9.30;63.30;;;;;;5072568;28;20504;-72
2022/02/08 10:42:33;;;;;;;23.30;21.60;;;9.40;63.10;;;;;;5072712;28;20204;-72
2022/02/08 10:45:01;;;;;;;23.85;21.83;;;9.50;63.10;;;;;;5072690;28;20204;-72
2022/02/08 10:47:37;;;;;;;24.40;22.90;;;9.60;63.00;;;;;;5072495;28;20274;-72
2022/02/08 10:50:06;;;;;;;23.27;21.83;;;9.70;62.50;;;;;;5072278;28;20487;-72
2022/02/08 10:52:36;;;;;;;24.00;22.43;;;9.70;62.80;;;;;;5072736;28;20538;-72
2022/02/08 10:55:11;;;;;;;23.07;21.67;;;9.70;63.00;;;;;;5072386;28;20967;-72
2022/02/08 10:57:52;;;;;;;26.50;24.03;;;9.70;62.90;;;;;;5072746;28;20483;-72
2022/02/08 11:00:30;;;;;;;24.77;23.27;;;9.90;62.50;;;;;;5072289;28;20836;-72
2022/02/08 11:03:00;;;;;;;23.80;22.27;;;9.80;62.40;;;;;;5072603;28;20223;-72
2022/02/08 11:05:38;;;;;;;24.67;23.20;;;9.90;62.50;;;;;;5072440;28;20463;-72
2022/02/08 11:08:23;;;;;;;23.30;21.30;;;10.00;62.20;;;;;;5072507;28;20455;-72
2022/02/08 11:11:14;;;;;;;25.80;23.80;;;10.10;62.40;;;;;;5072108;28;20480;-72
2022/02/08 11:14:04;;;;;;;23.80;22.00;;;10.30;61.90;;;;;;5072361;28;20463;-72
2022/02/08 11:16:43;;;;;;;23.00;21.60;;;10.50;61.60;;;;;;5072269;28;20513;-72
2022/02/08 11:19:24;;;;;;;23.93;22.43;;;10.70;61.00;;;;;;5072045;28;20503;-72
2022/02/08 11:22:02;;;;;;;22.77;21.57;;;10.90;61.00;;;;;;5072209;28;20931;-72
2022/02/08 11:24:40;;;;;;;23.30;21.47;;;11.20;60.60;;;;;;5072443;28;20602;-72
2022/02/08 11:27:10;;;;;;;23.40;21.73;;;11.30;59.60;;;;;;5072334;28;20488;-72
2022/02/08 11:29:41;;;;;;;26.20;24.30;;;11.30;61.20;;;;;;5076154;28;20480;-72
2022/02/08 11:32:18;;;;;;;26.93;25.37;;;11.50;59.60;;;;;;5076328;28;20477;-72
2022/02/08 11:46:12;;;;;;;23.40;21.80;;;12.00;60.30;;;;;;5076325;28;20513;-72
2022/02/08 11:51:44;;;;;;;22.50;21.30;;;12.10;61.40;;;;;;5075898;28;20503;-72
2022/02/08 11:54:33;;;;;;;24.47;22.60;;;12.10;61.60;;;;;;5075912;28;20542;-72
2022/02/08 12:00:08;;;;;;;24.30;22.80;;;12.40;62.40;;;;;;5052611;28;20525;-72
2022/02/08 12:02:50;;;;;;;25.43;23.93;;;12.50;63.50;;;;;;5076036;28;20456;-73
2022/02/08 12:05:29;;;;;;;25.00;23.50;;;12.80;62.40;;;;;;5075692;28;20457;-72
2022/02/08 12:07:58;;;;;;;24.23;22.83;;;12.70;62.30;;;;;;5075573;28;20999;-72
2022/02/08 12:10:30;;;;;;;25.87;24.30;;;12.80;62.30;;;;;;5075289;28;20519;-72
2022/02/08 12:33:09;;;;;;;24.03;22.50;;;12.30;65.90;;;;;;5075185;28;20527;-72
2022/02/08 12:58:02;;;;;;;23.53;22.23;;;12.10;66.50;;;;;;5073554;28;21002;-72
2022/02/08 13:00:39;;;;;;;22.60;21.40;;;12.10;66.80;;;;;;5074604;28;20470;-72
2022/02/08 13:03:24;;;;;;;24.10;22.80;;;12.10;67.60;;;;;;5074695;28;20540;-72
2022/02/08 13:06:20;;;;;;;23.37;21.80;;;12.10;67.00;;;;;;5074846;28;20459;-73
2022/02/08 14:01:46;;;;;;;23.20;21.80;;;11.80;68.90;;;;;;5073299;28;20536;-72
2022/02/08 14:07:08;;;;;;;23.13;21.40;;;11.70;68.90;;;;;;5073485;28;20443;-72
2022/02/08 14:09:58;;;;;;;23.40;21.90;;;11.80;69.00;;;;;;5073170;28;20793;-72
2022/02/08 14:13:01;;;;;;;21.93;20.70;;;11.70;68.80;;;;;;5073257;28;20928;-72
2022/02/08 14:15:45;;;;;;;24.00;22.70;;;11.60;69.30;;;;;;5073099;28;20444;-72
2022/02/08 14:18:36;;;;;;;22.30;21.00;;;11.70;69.60;;;;;;5072706;28;21054;-72
2022/02/08 14:21:10;;;;;;;21.73;20.40;;;11.80;69.10;;;;;;5072654;28;20467;-72
2022/02/08 15:08:11;;;;;;;21.87;20.60;;;11.20;71.70;;;;;;5071983;28;20814;-72
2022/02/08 15:10:42;;;;;;;22.87;21.53;;;11.10;71.70;;;;;;5072072;28;21016;-72
2022/02/08 15:13:11;;;;;;;22.90;21.47;;;11.20;71.40;;;;;;5072282;28;20496;-72
2022/02/08 15:15:59;;;;;;;23.60;22.40;;;11.40;70.70;;;;;;5072539;28;20495;-72
2022/02/08 15:18:28;;;;;;;22.43;21.13;;;11.30;70.90;;;;;;5072011;28;20460;-72
2022/02/08 15:20:55;;;;;;;23.60;22.00;;;11.00;71.70;;;;;;5072186;28;20922;-72
2022/02/08 15:23:22;;;;;;;24.20;22.77;;;11.00;72.30;;;;;;5072184;28;20452;-72
2022/02/08 15:25:53;;;;;;;22.60;21.33;;;11.00;72.20;;;;;;5072228;28;21015;-72
2022/02/08 15:28:22;;;;;;;22.67;21.37;;;11.00;72.30;;;;;;5072288;28;20495;-72
2022/02/08 15:30:52;;;;;;;24.13;22.60;;;11.00;72.30;;;;;;5071834;28;20981;-72
2022/02/08 15:33:19;;;;;;;23.63;21.93;;;11.00;72.50;;;;;;5072247;28;20460;-72
2022/02/08 15:35:46;;;;;;;22.83;21.43;;;10.90;72.70;;;;;;5072125;28;20478;-72
2022/02/08 15:38:13;;;;;;;22.60;21.30;;;10.80;73.00;;;;;;5072082;28;20460;-72
2022/02/08 15:40:40;;;;;;;22.00;20.70;;;10.70;73.50;;;;;;5071874;28;20823;-72
2022/02/08 15:43:08;;;;;;;22.80;21.30;;;10.60;73.80;;;;;;5072185;28;20452;-72
2022/02/08 15:45:39;;;;;;;22.83;21.10;;;10.60;74.10;;;;;;5071983;28;20509;-72
2022/02/08 15:48:12;;;;;;;22.40;21.10;;;10.60;73.90;;;;;;5072095;28;20548;-72
2022/02/08 15:50:50;;;;;;;21.33;20.00;;;10.50;73.90;;;;;;5071860;28;20845;-72
2022/02/08 15:53:35;;;;;;;21.50;20.30;;;10.40;74.80;;;;;;5072129;28;20475;-72
2022/02/08 16:05:08;;;;;;;21.00;19.90;;;10.00;76.90;;;;;;5071768;28;20451;-72
2022/02/08 16:07:14;;;;;;;22.20;20.80;;;9.90;77.00;;;;;;5071748;28;20477;-72
2022/02/08 16:09:46;;;;;;;22.37;20.97;;;9.90;77.30;;;;;;5071587;28;20951;-72
2022/02/08 16:18:02;;;;;;;23.57;22.27;;;10.00;77.30;;;;;;5075301;28;20615;-72
2022/02/08 16:23:38;;;;;;;22.43;21.10;;;10.00;77.70;;;;;;5073084;28;20462;-72
2022/02/08 16:26:17;;;;;;;21.20;19.90;;;10.00;77.50;;;;;;5075343;28;20490;-72
2022/02/08 16:29:01;;;;;;;21.10;20.00;;;9.90;77.40;;;;;;5075483;28;20436;-72
2022/02/08 16:53:48;;;;;;;20.73;19.53;;;9.60;79.10;;;;;;5074955;28;20521;-72
2022/02/08 16:56:26;;;;;;;20.33;19.13;;;9.60;79.20;;;;;;5074794;28;20454;-72
2022/02/08 16:58:55;;;;;;;20.30;19.10;;;9.50;79.40;;;;;;5074802;28;20488;-72
2022/02/08 17:01:26;;;;;;;21.57;20.20;;;9.70;79.30;;;;;;5074616;28;20885;-72
2022/02/08 17:03:53;;;;;;;20.77;19.57;;;9.70;79.10;;;;;;5074754;28;20455;-72
2022/02/08 17:06:22;;;;;;;21.30;19.90;;;9.70;79.00;;;;;;5074773;28;20469;-72
2022/02/08 17:08:57;;;;;;;20.43;19.13;;;9.70;79.10;;;;;;5074531;28;20452;-72
2022/02/08 17:11:35;;;;;;;21.00;19.80;;;9.70;79.10;;;;;;5074217;28;20562;-72
2022/02/08 17:16:54;;;;;;;21.97;20.67;;;9.80;78.90;;;;;;5074459;28;20531;-72
2022/02/08 17:19:48;;;;;;;21.40;20.10;;;9.80;78.80;;;;;;5074247;28;20541;-72
2022/02/08 17:47:20;;;;;;;22.93;21.63;;;9.80;78.50;;;;;;5073983;28;20431;-73
2022/02/08 17:49:49;;;;;;;23.43;21.40;;;9.80;78.30;;;;;;5073455;28;20479;-72
2022/02/08 17:52:16;;;;;;;23.37;22.07;;;9.80;78.10;;;;;;5073951;28;21003;-73
2022/02/08 17:54:43;;;;;;;23.13;21.77;;;9.70;78.20;;;;;;5073716;28;20448;-73
2022/02/08 17:57:13;;;;;;;22.40;21.10;;;9.80;78.40;;;;;;5073602;28;20453;-73
2022/02/08 17:59:40;;;;;;;24.10;22.60;;;9.80;78.60;;;;;;5073360;28;20459;-73
2022/02/08 18:02:09;;;;;;;22.80;21.60;;;9.80;78.60;;;;;;5073479;28;20467;-73
2022/02/08 18:04:36;;;;;;;23.63;21.73;;;9.70;78.00;;;;;;5073550;28;20467;-74
2022/02/08 18:07:04;;;;;;;24.20;22.30;;;9.80;78.10;;;;;;5073601;28;20448;-73
2022/02/08 18:09:31;;;;;;;23.43;21.87;;;9.70;78.20;;;;;;5073224;28;20532;-73
2022/02/08 18:12:00;;;;;;;22.30;20.70;;;9.80;78.20;;;;;;5073242;28;20542;-73
2022/02/08 18:14:29;;;;;;;23.03;21.60;;;9.80;77.90;;;;;;5073179;28;20466;-73
2022/02/08 18:17:07;;;;;;;24.80;23.07;;;9.80;77.80;;;;;;5073289;28;20469;-73